createdAt,value
2018-02-15T00:01:40.176Z,1.80
2018-02-15T00:04:07.673Z,2.07
2018-02-15T00:06:35.136Z,2.17
2018-02-15T00:09:02.685Z,2.03
2018-02-15T00:11:30.140Z,1.80
2018-02-15T00:13:57.915Z,2.20
2018-02-15T00:16:25.553Z,2.07
2018-02-15T00:18:53.023Z,1.77
2018-02-15T00:21:20.493Z,2.00
2018-02-15T00:23:48.968Z,1.70
2018-02-15T00:26:16.425Z,2.20
2018-02-15T00:28:44.056Z,1.47
2018-02-15T00:31:11.644Z,1.80
2018-02-15T00:33:39.089Z,1.77
2018-02-15T00:36:06.762Z,2.23
2018-02-15T00:38:34.232Z,1.90
2018-02-15T00:41:01.697Z,1.80
2018-02-15T00:43:29.153Z,1.93
2018-02-15T00:45:56.612Z,1.60
2018-02-15T00:48:24.069Z,1.63
2018-02-15T00:50:52.424Z,1.80
2018-02-15T00:53:19.869Z,1.73
2018-02-15T00:55:47.343Z,1.70
2018-02-15T00:58:14.811Z,1.57
2018-02-15T01:00:42.394Z,1.83
2018-02-15T01:03:10.134Z,1.70
2018-02-15T01:05:37.620Z,1.87
2018-02-15T01:08:05.233Z,1.50
2018-02-15T01:10:32.686Z,1.70
2018-02-15T01:13:00.152Z,1.80
2018-02-15T01:15:27.649Z,1.90
2018-02-15T01:17:55.112Z,1.77
2018-02-15T01:20:22.665Z,1.83
2018-02-15T01:22:50.126Z,1.83
2018-02-15T01:25:17.907Z,1.97
2018-02-15T01:27:45.518Z,1.70
2018-02-15T01:30:12.998Z,1.90
2018-02-15T01:32:40.469Z,1.37
2018-02-15T01:35:08.008Z,2.00
2018-02-15T01:37:35.768Z,1.63
2018-02-15T01:40:03.255Z,1.70
2018-02-15T01:42:30.709Z,1.90
2018-02-15T01:44:58.377Z,1.80
2018-02-15T01:47:25.924Z,1.73
2018-02-15T01:50:03.118Z,1.53
2018-02-15T01:52:30.672Z,1.90
2018-02-15T01:54:58.294Z,2.13
2018-02-15T01:57:25.893Z,1.80
2018-02-15T01:59:53.352Z,1.80
2018-02-15T02:02:20.992Z,1.73
2018-02-15T02:04:48.449Z,1.93
2018-02-15T02:07:16.025Z,1.50
2018-02-15T02:09:43.789Z,2.20
2018-02-15T02:12:11.556Z,2.00
2018-02-15T02:14:39.321Z,1.57
2018-02-15T02:17:06.852Z,1.60
2018-02-15T02:19:34.429Z,1.67
2018-02-15T02:22:02.009Z,1.70
2018-02-15T02:24:29.461Z,1.60
2018-02-15T02:26:57.109Z,1.60
2018-02-15T02:29:25.003Z,1.40
2018-02-15T02:31:52.446Z,1.87
2018-02-15T02:34:20.204Z,1.50
2018-02-15T02:36:47.842Z,1.50
2018-02-15T02:39:15.445Z,1.80
2018-02-15T02:41:42.889Z,1.80
2018-02-15T02:44:10.345Z,1.60
2018-02-15T02:46:37.809Z,1.40
2018-02-15T02:49:05.569Z,1.77
2018-02-15T02:51:33.012Z,1.40
2018-02-15T02:54:00.659Z,1.87
2018-02-15T02:56:28.252Z,1.60
2018-02-15T02:58:55.917Z,1.33
2018-02-15T03:01:23.378Z,1.40
2018-02-15T03:03:50.936Z,1.80
2018-02-15T03:06:18.704Z,1.70
2018-02-15T03:08:46.465Z,1.60
2018-02-15T03:11:14.025Z,1.80
2018-02-15T03:13:41.726Z,1.60
2018-02-15T03:16:09.453Z,1.90
2018-02-15T03:18:37.076Z,1.63
2018-02-15T03:21:04.678Z,1.60
2018-02-15T03:23:32.132Z,1.70
2018-02-15T03:25:59.776Z,1.70
2018-02-15T03:28:27.292Z,1.50
2018-02-15T03:30:54.764Z,1.70
2018-02-15T03:33:22.214Z,1.30
2018-02-15T03:35:49.677Z,1.50
2018-02-15T03:38:17.178Z,1.63
2018-02-15T03:40:44.657Z,1.80
2018-02-15T03:43:12.273Z,1.77
2018-02-15T03:45:39.779Z,1.70
2018-02-15T03:48:07.233Z,1.50
2018-02-15T03:50:34.690Z,1.60
2018-02-15T03:53:02.148Z,1.50
2018-02-15T03:55:29.597Z,1.50
2018-02-15T03:57:57.062Z,1.50
2018-02-15T04:00:24.584Z,1.70
2018-02-15T04:02:52.085Z,1.60
2018-02-15T04:05:19.544Z,1.63
2018-02-15T04:07:47.000Z,1.47
2018-02-15T04:10:14.765Z,1.40
2018-02-15T04:12:42.383Z,1.40
2018-02-15T04:15:09.943Z,1.70
2018-02-15T04:17:37.450Z,1.63
2018-02-15T04:20:04.896Z,1.50
2018-02-15T04:22:32.677Z,1.60
2018-02-15T04:25:00.294Z,1.83
2018-02-15T04:27:27.883Z,1.43
2018-02-15T04:29:55.337Z,1.67
2018-02-15T04:32:23.105Z,1.63
2018-02-15T04:34:50.576Z,1.73
2018-02-15T04:37:18.203Z,2.00
2018-02-15T04:39:45.678Z,1.70
2018-02-15T04:42:13.136Z,1.67
2018-02-15T04:44:40.604Z,1.50
2018-02-15T04:47:08.077Z,1.53
2018-02-15T04:49:35.558Z,1.80
2018-02-15T04:52:03.009Z,1.80
2018-02-15T04:54:30.464Z,1.40
2018-02-15T04:56:57.998Z,2.10
2018-02-15T04:59:25.560Z,1.57
2018-02-15T05:01:53.189Z,1.37
2018-02-15T05:04:20.638Z,1.80
2018-02-15T05:06:48.153Z,1.73
2018-02-15T05:09:15.922Z,1.70
2018-02-15T05:11:43.656Z,1.50
2018-02-15T05:14:11.116Z,1.60
2018-02-15T05:16:39.192Z,1.73
2018-02-15T05:19:06.732Z,1.50
2018-02-15T05:21:34.379Z,1.70
2018-02-15T05:24:02.348Z,1.53
2018-02-15T05:26:29.807Z,1.73
2018-02-15T05:28:57.396Z,2.03
2018-02-15T05:31:24.857Z,2.67
2018-02-15T05:33:52.496Z,13.17
2018-02-15T05:36:20.009Z,13.90
2018-02-15T05:38:47.457Z,11.90
2018-02-15T05:41:14.908Z,12.30
2018-02-15T05:43:42.456Z,11.63
2018-02-15T05:46:09.964Z,11.37
2018-02-15T05:48:37.508Z,9.43
2018-02-15T05:51:05.779Z,9.97
2018-02-15T05:53:33.572Z,9.23
2018-02-15T05:56:01.314Z,8.40
2018-02-15T05:58:28.882Z,8.03
2018-02-15T06:00:56.427Z,8.73
2018-02-15T06:03:23.975Z,8.00
2018-02-15T06:05:51.767Z,7.67
2018-02-15T06:08:19.336Z,8.50
2018-02-15T06:10:46.964Z,7.53
2018-02-15T06:13:14.522Z,6.97
2018-02-15T06:15:42.439Z,6.63
2018-02-15T06:18:10.079Z,6.90
2018-02-15T06:20:37.722Z,6.53
2018-02-15T06:23:05.489Z,5.93
2018-02-15T06:25:33.293Z,6.27
2018-02-15T06:28:01.043Z,6.63
2018-02-15T06:30:28.583Z,5.90
2018-02-15T06:32:56.148Z,6.33
2018-02-15T06:35:23.669Z,6.37
2018-02-15T06:37:51.226Z,6.70
2018-02-15T06:40:19.137Z,6.27
2018-02-15T06:42:46.691Z,9.00
2018-02-15T06:45:14.487Z,7.67
2018-02-15T06:47:42.105Z,7.60
2018-02-15T06:50:09.574Z,7.43
2018-02-15T06:52:37.128Z,6.83
2018-02-15T06:55:04.583Z,6.77
2018-02-15T06:57:32.041Z,6.53
2018-02-15T06:59:59.807Z,6.70
2018-02-15T07:02:27.570Z,6.10
2018-02-15T07:04:55.212Z,6.70
2018-02-15T07:07:22.805Z,6.37
2018-02-15T07:09:50.371Z,6.17
2018-02-15T07:12:18.005Z,5.90
2018-02-15T07:14:45.665Z,6.70
2018-02-15T07:17:13.240Z,6.17
2018-02-15T07:19:40.820Z,6.73
2018-02-15T07:22:08.256Z,6.57
2018-02-15T07:24:35.916Z,6.50
2018-02-15T07:27:03.396Z,6.00
2018-02-15T07:29:31.134Z,6.30
2018-02-15T07:31:58.797Z,6.33
2018-02-15T07:34:26.249Z,6.37
2018-02-15T07:36:53.704Z,6.80
2018-02-15T07:39:21.174Z,6.23
2018-02-15T07:41:48.634Z,5.97
2018-02-15T07:44:16.093Z,5.60
2018-02-15T07:46:43.553Z,5.97
2018-02-15T07:49:11.919Z,6.07
2018-02-15T07:51:39.387Z,6.00
2018-02-15T07:54:06.845Z,5.93
2018-02-15T07:56:34.305Z,5.43
2018-02-15T07:59:01.790Z,5.90
2018-02-15T08:01:29.244Z,5.83
2018-02-15T08:03:56.692Z,6.20
2018-02-15T08:06:24.137Z,5.73
2018-02-15T08:08:51.605Z,5.40
2018-02-15T08:11:19.172Z,5.47
2018-02-15T08:13:46.780Z,5.67
2018-02-15T08:16:14.868Z,5.90
2018-02-15T08:18:42.354Z,6.20
2018-02-15T08:21:09.914Z,6.50
2018-02-15T08:23:37.549Z,5.53
2018-02-15T08:26:05.043Z,5.50
2018-02-15T08:28:32.485Z,5.63
2018-02-15T08:30:59.945Z,5.70
2018-02-15T08:33:27.421Z,5.50
2018-02-15T08:35:54.956Z,4.83
2018-02-15T08:38:22.433Z,5.60
2018-02-15T08:40:50.198Z,4.87
2018-02-15T08:43:17.961Z,5.67
2018-02-15T08:45:45.449Z,5.70
2018-02-15T08:48:13.112Z,5.37
2018-02-15T08:50:40.561Z,4.90
2018-02-15T08:53:08.021Z,5.23
2018-02-15T08:55:35.548Z,5.30
2018-02-15T08:58:03.185Z,5.30
2018-02-15T09:00:30.673Z,5.80
2018-02-15T09:02:58.136Z,5.00
2018-02-15T09:05:25.605Z,5.20
2018-02-15T09:07:53.060Z,5.63
2018-02-15T09:10:20.532Z,5.30
2018-02-15T09:12:47.981Z,6.13
2018-02-15T09:15:15.428Z,4.97
2018-02-15T09:17:42.905Z,5.07
2018-02-15T09:20:10.356Z,4.83
2018-02-15T09:22:37.897Z,5.10
2018-02-15T09:25:05.362Z,5.13
2018-02-15T09:27:32.849Z,5.43
2018-02-15T09:30:00.565Z,4.67
2018-02-15T09:32:28.046Z,5.20
2018-02-15T09:34:55.497Z,4.70
2018-02-15T09:37:22.993Z,5.13
2018-02-15T09:39:50.705Z,4.87
2018-02-15T09:42:18.160Z,5.30
2018-02-15T09:44:45.804Z,5.10
2018-02-15T09:47:13.304Z,4.57
2018-02-15T09:49:40.760Z,4.90
2018-02-15T09:52:08.206Z,4.80
2018-02-15T09:54:35.660Z,4.73
2018-02-15T09:57:03.241Z,4.80
2018-02-15T09:59:30.896Z,4.70
2018-02-15T10:01:58.437Z,5.13
2018-02-15T10:04:25.997Z,4.80
2018-02-15T10:06:53.536Z,4.80
2018-02-15T10:09:21.126Z,4.60
2018-02-15T10:11:48.584Z,4.70
2018-02-15T10:14:16.227Z,4.63
2018-02-15T10:16:43.677Z,4.90
2018-02-15T10:19:11.140Z,5.13
2018-02-15T10:21:38.595Z,4.70
2018-02-15T10:24:06.098Z,4.50
2018-02-15T10:26:33.553Z,4.53
2018-02-15T10:29:01.052Z,5.20
2018-02-15T10:31:28.517Z,5.10
2018-02-15T10:33:55.956Z,4.07
2018-02-15T10:36:23.421Z,4.97
2018-02-15T10:38:50.947Z,4.80
2018-02-15T10:41:18.405Z,4.40
2018-02-15T10:43:45.869Z,4.60
2018-02-15T10:46:13.612Z,4.40
2018-02-15T10:48:41.373Z,4.57
2018-02-15T10:51:08.840Z,5.10
2018-02-15T10:53:36.592Z,4.47
2018-02-15T10:56:04.065Z,4.50
2018-02-15T10:58:31.824Z,4.50
2018-02-15T11:01:04.848Z,4.60
2018-02-15T11:03:32.484Z,4.50
2018-02-15T11:05:59.956Z,5.10
2018-02-15T11:08:27.416Z,4.00
2018-02-15T11:10:54.900Z,4.33
2018-02-15T11:13:22.396Z,4.70
2018-02-15T11:15:50.160Z,4.53
2018-02-15T11:18:17.924Z,4.73
2018-02-15T11:20:45.382Z,4.43
2018-02-15T11:23:13.147Z,4.17
2018-02-15T11:25:40.617Z,4.43
2018-02-15T11:28:08.372Z,4.17
2018-02-15T11:30:35.832Z,4.30
2018-02-15T11:33:03.332Z,4.40
2018-02-15T11:35:30.789Z,4.33
2018-02-15T11:37:58.245Z,4.53
2018-02-15T11:40:25.876Z,4.80
2018-02-15T11:42:53.403Z,4.33
2018-02-15T11:45:20.902Z,4.47
2018-02-15T11:47:48.654Z,4.33
2018-02-15T11:50:16.113Z,3.90
2018-02-15T11:52:43.583Z,4.40
2018-02-15T11:55:11.337Z,4.20
2018-02-15T11:57:38.792Z,4.33
2018-02-15T12:00:06.561Z,4.33
2018-02-15T12:02:34.323Z,4.43
2018-02-15T12:05:01.769Z,4.63
2018-02-15T12:07:29.256Z,4.13
2018-02-15T12:09:56.716Z,4.40
2018-02-15T12:12:24.174Z,4.57
2018-02-15T12:14:51.736Z,4.30
2018-02-15T12:17:19.192Z,4.40
2018-02-15T12:19:46.668Z,4.27
2018-02-15T12:22:14.900Z,4.80
2018-02-15T12:24:42.534Z,4.27
2018-02-15T12:27:10.138Z,4.03
2018-02-15T12:29:37.594Z,4.63
2018-02-15T12:32:05.217Z,4.03
2018-02-15T12:34:32.717Z,3.90
2018-02-15T12:37:00.265Z,4.20
2018-02-15T12:39:27.731Z,4.07
2018-02-15T12:41:55.355Z,3.97
2018-02-15T12:44:22.821Z,3.70
2018-02-15T12:46:50.285Z,3.83
2018-02-15T12:49:17.749Z,4.23
2018-02-15T12:51:45.225Z,4.07
2018-02-15T12:54:13.612Z,3.83
2018-02-15T12:56:41.825Z,4.23
2018-02-15T12:59:09.452Z,4.30
2018-02-15T13:01:37.010Z,3.97
2018-02-15T13:04:04.632Z,3.90
2018-02-15T13:06:32.124Z,4.00
2018-02-15T13:08:59.581Z,4.10
2018-02-15T13:11:28.061Z,4.07
2018-02-15T13:13:55.822Z,4.20
2018-02-15T13:16:35.264Z,3.83
2018-02-15T13:19:14.697Z,4.40
2018-02-15T13:21:42.181Z,4.23
2018-02-15T13:24:09.793Z,4.03
2018-02-15T13:26:37.401Z,4.07
2018-02-15T13:29:05.069Z,4.43
2018-02-15T13:31:32.522Z,4.17
2018-02-15T13:34:00.060Z,4.20
2018-02-15T13:36:27.514Z,4.53
2018-02-15T13:38:54.998Z,4.13
2018-02-15T13:41:22.661Z,4.80
2018-02-15T13:43:50.128Z,3.87
2018-02-15T13:46:17.660Z,4.23
2018-02-15T13:48:45.309Z,4.23
2018-02-15T13:51:12.884Z,3.57
2018-02-15T13:53:40.553Z,4.30
2018-02-15T13:56:08.036Z,3.53
2018-02-15T13:58:35.568Z,4.00
2018-02-15T14:01:03.212Z,4.03
2018-02-15T14:03:30.656Z,4.23
2018-02-15T14:05:58.117Z,4.40
2018-02-15T14:08:25.564Z,4.30
2018-02-15T14:10:53.083Z,4.63
2018-02-15T14:13:21.335Z,4.63
2018-02-15T14:15:48.901Z,4.10
2018-02-15T14:18:16.357Z,4.30
2018-02-15T14:20:43.911Z,4.33
2018-02-15T14:23:11.376Z,4.53
2018-02-15T14:25:38.832Z,3.73
2018-02-15T14:28:06.509Z,3.83
2018-02-15T14:30:33.978Z,3.83
2018-02-15T14:33:01.412Z,3.70
2018-02-15T14:35:29.135Z,4.00
2018-02-15T14:37:56.633Z,3.90
2018-02-15T14:40:24.095Z,3.87
2018-02-15T14:42:51.653Z,4.40
2018-02-15T14:45:19.410Z,4.70
2018-02-15T14:47:47.052Z,3.70
2018-02-15T14:50:14.557Z,3.70
2018-02-15T14:52:42.026Z,4.70
2018-02-15T14:55:09.549Z,4.17
2018-02-15T14:57:37.015Z,4.23
2018-02-15T15:00:04.772Z,4.50
2018-02-15T15:02:32.426Z,4.23
2018-02-15T15:04:59.884Z,3.70
2018-02-15T15:07:27.346Z,4.23
2018-02-15T15:09:55.099Z,3.90
2018-02-15T15:12:22.591Z,4.30
2018-02-15T15:14:50.056Z,4.67
2018-02-15T15:17:17.588Z,4.03
2018-02-15T15:19:45.250Z,4.27
2018-02-15T15:22:12.705Z,4.10
2018-02-15T15:24:40.174Z,4.23
2018-02-15T15:27:07.619Z,3.67
2018-02-15T15:29:35.192Z,5.17
2018-02-15T15:32:02.837Z,4.23
2018-02-15T15:34:30.420Z,5.07
2018-02-15T15:36:58.068Z,5.50
2018-02-15T15:39:25.696Z,4.60
2018-02-15T15:41:53.226Z,6.23
2018-02-15T15:44:21.492Z,5.77
2018-02-15T15:46:49.126Z,4.77
2018-02-15T15:49:16.580Z,4.60
2018-02-15T15:51:44.084Z,4.07
2018-02-15T15:54:11.545Z,4.70
2018-02-15T15:56:38.995Z,4.30
2018-02-15T15:59:06.459Z,3.93
2018-02-15T16:01:33.912Z,4.33
2018-02-15T16:04:01.418Z,3.60
2018-02-15T16:06:28.877Z,5.07
2018-02-15T16:08:56.721Z,4.33
2018-02-15T16:11:24.320Z,4.67
2018-02-15T16:13:51.808Z,3.80
2018-02-15T16:16:19.261Z,4.20
2018-02-15T16:18:46.712Z,4.57
2018-02-15T16:21:14.167Z,4.10
2018-02-15T16:23:41.611Z,3.80
2018-02-15T16:26:09.068Z,4.23
2018-02-15T16:28:36.811Z,4.57
2018-02-15T16:31:04.300Z,4.30
2018-02-15T16:33:31.860Z,4.70
2018-02-15T16:35:59.314Z,4.03
2018-02-15T16:38:26.808Z,4.33
2018-02-15T16:40:54.252Z,4.10
2018-02-15T16:43:21.800Z,4.33
2018-02-15T16:45:49.465Z,4.50
2018-02-15T16:48:16.936Z,4.17
2018-02-15T16:50:44.584Z,4.10
2018-02-15T16:53:12.033Z,3.80
2018-02-15T16:55:39.505Z,3.73
2018-02-15T16:58:07.065Z,4.63
2018-02-15T17:00:34.706Z,4.10
2018-02-15T17:03:02.273Z,3.83
2018-02-15T17:05:29.917Z,3.90
2018-02-15T17:07:57.472Z,3.73
2018-02-15T17:10:24.984Z,4.13
2018-02-15T17:12:52.602Z,3.80
2018-02-15T17:15:20.065Z,4.17
2018-02-15T17:17:47.669Z,3.93
2018-02-15T17:20:15.893Z,3.87
2018-02-15T17:22:43.350Z,3.77
2018-02-15T17:25:10.933Z,3.47
2018-02-15T17:27:38.567Z,3.40
2018-02-15T17:30:06.189Z,3.93
2018-02-15T17:32:33.645Z,3.83
2018-02-15T17:35:01.273Z,3.70
2018-02-15T17:37:28.816Z,3.87
2018-02-15T17:39:56.305Z,3.50
2018-02-15T17:42:23.786Z,3.63
2018-02-15T17:44:51.419Z,4.07
2018-02-15T17:47:18.898Z,3.33
2018-02-15T17:49:46.463Z,3.63
2018-02-15T17:52:14.020Z,3.90
2018-02-15T17:54:41.553Z,3.63
2018-02-15T17:57:09.021Z,3.43
2018-02-15T17:59:36.500Z,3.33
2018-02-15T18:02:03.970Z,3.80
2018-02-15T18:04:31.512Z,4.20
2018-02-15T18:06:59.155Z,3.80
2018-02-15T18:09:26.726Z,3.40
2018-02-15T18:11:54.253Z,4.47
2018-02-15T18:14:21.969Z,3.30
2018-02-15T18:16:49.405Z,3.23
2018-02-15T18:19:16.872Z,4.17
2018-02-15T18:21:44.337Z,3.60
2018-02-15T18:24:11.798Z,3.93
2018-02-15T18:26:39.444Z,3.83
2018-02-15T18:29:06.900Z,3.83
2018-02-15T18:31:34.464Z,3.40
2018-02-15T18:34:01.921Z,3.57
2018-02-15T18:36:29.389Z,3.60
2018-02-15T18:38:57.020Z,3.67
2018-02-15T18:41:24.550Z,3.40
2018-02-15T18:46:26.793Z,3.90
2018-02-15T18:48:54.252Z,3.47
2018-02-15T18:51:27.955Z,3.90
2018-02-15T18:53:55.612Z,3.50
2018-02-15T18:56:23.489Z,3.73
2018-02-15T18:58:51.679Z,3.90
2018-02-15T19:01:19.923Z,3.87
2018-02-15T19:03:47.397Z,3.17
2018-02-15T19:06:14.871Z,3.33
2018-02-15T19:08:42.316Z,3.60
2018-02-15T19:11:10.068Z,3.50
2018-02-15T19:13:37.740Z,3.67
2018-02-15T19:16:05.281Z,3.73
2018-02-15T19:18:33.063Z,3.63
2018-02-15T19:21:00.692Z,3.40
2018-02-15T19:23:28.153Z,3.47
2018-02-15T19:25:55.632Z,3.40
2018-02-15T19:28:23.102Z,3.60
2018-02-15T19:30:50.569Z,3.10
2018-02-15T19:33:18.024Z,3.23
2018-02-15T19:35:45.491Z,3.30
2018-02-15T19:38:12.941Z,3.63
2018-02-15T19:40:40.393Z,3.87
2018-02-15T19:43:07.854Z,3.53
2018-02-15T19:45:35.389Z,3.17
2018-02-15T19:48:03.046Z,3.90
2018-02-15T19:50:30.624Z,3.37
2018-02-15T19:52:58.149Z,3.13
2018-02-15T19:55:25.708Z,3.27
2018-02-15T19:57:53.361Z,3.00
2018-02-15T20:00:20.985Z,3.27
2018-02-15T20:02:48.444Z,3.33
2018-02-15T20:05:15.982Z,3.60
2018-02-15T20:07:43.641Z,3.70
2018-02-15T20:10:11.222Z,3.90
2018-02-15T20:12:38.709Z,3.10
2018-02-15T20:15:06.170Z,3.80
2018-02-15T20:17:33.897Z,3.57
2018-02-15T20:20:07.345Z,3.30
2018-02-15T20:22:34.829Z,3.17
2018-02-15T20:25:02.288Z,4.07
2018-02-15T20:27:35.586Z,3.40
2018-02-15T20:30:03.160Z,3.10
2018-02-15T20:32:30.800Z,3.53
2018-02-15T20:34:58.272Z,3.63
2018-02-15T20:37:31.334Z,3.37
2018-02-15T20:40:04.390Z,3.60
2018-02-15T20:42:32.125Z,3.67
2018-02-15T20:44:59.584Z,3.57
2018-02-15T20:47:27.041Z,3.43
2018-02-15T20:50:00.398Z,3.17
2018-02-15T20:52:33.416Z,3.27
2018-02-15T20:55:06.687Z,3.40
2018-02-15T20:57:34.377Z,3.60
2018-02-15T21:00:01.846Z,3.33
2018-02-15T21:02:29.596Z,3.60
2018-02-15T21:04:57.060Z,3.47
2018-02-15T21:07:24.513Z,3.50
2018-02-15T21:09:52.157Z,3.60
2018-02-15T21:12:19.736Z,3.00
2018-02-15T21:14:47.381Z,3.30
2018-02-15T21:17:15.187Z,3.20
2018-02-15T21:19:42.641Z,3.30
2018-02-15T21:22:10.105Z,3.40
2018-02-15T21:24:38.561Z,2.63
2018-02-15T21:27:06.328Z,3.13
2018-02-15T21:29:33.992Z,3.30
2018-02-15T21:32:01.552Z,2.90
2018-02-15T21:54:38.261Z,3.07
2018-02-15T21:57:05.708Z,3.50
2018-02-15T21:59:33.149Z,2.70
2018-02-15T22:02:00.715Z,3.20
2018-02-15T22:04:28.308Z,3.13
2018-02-15T22:06:55.933Z,2.80
2018-02-15T22:09:23.389Z,2.70
2018-02-15T22:11:50.990Z,3.00
2018-02-15T22:14:18.736Z,3.23
2018-02-15T22:16:46.384Z,3.10
2018-02-15T22:19:13.836Z,3.00
2018-02-15T22:21:41.336Z,2.90
2018-02-15T22:24:08.785Z,2.90
2018-02-15T22:26:36.253Z,3.50
2018-02-15T22:29:03.724Z,8.20
2018-02-15T22:31:31.179Z,22.73
2018-02-15T22:33:59.397Z,22.13
2018-02-15T22:36:26.868Z,18.40
2018-02-15T22:38:55.047Z,15.63
2018-02-15T22:41:22.570Z,13.70
2018-02-15T22:43:50.909Z,14.53
2018-02-15T22:46:18.470Z,13.23
2018-02-15T22:48:45.920Z,11.57
2018-02-15T22:51:13.380Z,12.00
2018-02-15T22:53:41.021Z,11.07
2018-02-15T22:56:08.529Z,10.37
2018-02-15T22:58:36.064Z,10.03
2018-02-15T23:01:03.844Z,11.50
2018-02-15T23:03:31.600Z,10.83
2018-02-15T23:05:59.365Z,9.93
2018-02-15T23:08:26.824Z,10.27
2018-02-15T23:10:54.280Z,9.57
2018-02-15T23:13:22.142Z,8.50
2018-02-15T23:15:50.986Z,8.23
2018-02-15T23:18:18.516Z,8.47
2018-02-15T23:20:46.189Z,8.20
2018-02-15T23:23:13.709Z,9.10
2018-02-15T23:25:41.171Z,8.63
2018-02-15T23:28:08.665Z,7.60
2018-02-15T23:30:36.400Z,7.53
2018-02-15T23:33:04.160Z,7.37
2018-02-15T23:35:31.933Z,7.47
2018-02-15T23:37:59.388Z,6.90
2018-02-15T23:40:27.144Z,7.30
2018-02-15T23:42:55.016Z,6.87
2018-02-15T23:45:22.672Z,6.27
2018-02-15T23:47:50.449Z,6.37
2018-02-15T23:50:17.896Z,6.00
2018-02-15T23:52:45.536Z,6.27
2018-02-15T23:55:13.121Z,5.97
2018-02-15T23:57:40.765Z,6.03
